TNCE/EUX METAR and TAF weather

Enter ICAO airport designator
Station Type Date Time Source
TNCE METAR 2019/11/15 04:55 UTC NOAA

TNCE 150455Z AUTO 05012KT 020V080 //// // ///////// 27/22 Q1013 RE//


Station Type Date Time Source
TNCE Decoded METAR 2019/11/15 04:55 UTC NOAA

Roosevelt Airport Saint Eustatius, Netherlands Antilles (TNCE) 17-29N 062-59W 39M
Nov 14, 2019 - 11:55 PM EST / 2019.11.15 0455 UTC
Wind: from the NE (050 degrees) at 14 MPH (12 KT) (direction variable):0
Temperature: 80 F (27 C)
Dew Point: 71 F (22 C)
Relative Humidity: 74%
Pressure (altimeter): 29.91 in. Hg (1013 hPa)
ob: TNCE 150455Z AUTO 05012KT 020V080 //// // ///////// 27/22 Q1013 RE//
cycle: 5

Station Type Date Time Source
TNCE TAF UTC NOAA

Error!

Example: see airport list